sensor_id;sensor_type;location;lat;lon;timestamp;P1;durP1;ratioP1;P2;durP2;ratioP2
21274;SDS011;36472;52.170;20.884;2022-08-19T00:02:02;14.10;;;12.20;;
21274;SDS011;36472;52.170;20.884;2022-08-19T00:04:32;14.38;;;12.88;;
21274;SDS011;36472;52.170;20.884;2022-08-19T00:07:03;13.88;;;12.32;;
21274;SDS011;36472;52.170;20.884;2022-08-19T00:09:33;15.95;;;13.43;;
21274;SDS011;36472;52.170;20.884;2022-08-19T00:12:04;13.85;;;11.90;;
21274;SDS011;36472;52.170;20.884;2022-08-19T00:14:33;15.52;;;12.20;;
21274;SDS011;36472;52.170;20.884;2022-08-19T00:17:02;14.60;;;11.73;;
21274;SDS011;36472;52.170;20.884;2022-08-19T00:19:33;15.23;;;12.73;;
21274;SDS011;36472;52.170;20.884;2022-08-19T00:22:04;14.38;;;12.88;;
21274;SDS011;36472;52.170;20.884;2022-08-19T00:24:33;14.50;;;12.95;;
21274;SDS011;36472;52.170;20.884;2022-08-19T00:27:06;14.70;;;12.43;;
21274;SDS011;36472;52.170;20.884;2022-08-19T00:29:51;15.20;;;12.65;;
21274;SDS011;36472;52.170;20.884;2022-08-19T00:32:19;13.48;;;12.07;;
21274;SDS011;36472;52.170;20.884;2022-08-19T00:34:49;13.95;;;12.55;;
21274;SDS011;36472;52.170;20.884;2022-08-19T00:37:20;14.32;;;12.05;;
21274;SDS011;36472;52.170;20.884;2022-08-19T00:39:50;14.60;;;12.52;;
21274;SDS011;36472;52.170;20.884;2022-08-19T00:42:22;14.05;;;12.57;;
21274;SDS011;36472;52.170;20.884;2022-08-19T00:44:52;16.23;;;12.95;;
21274;SDS011;36472;52.170;20.884;2022-08-19T00:47:21;14.13;;;12.63;;
21274;SDS011;36472;52.170;20.884;2022-08-19T00:49:52;14.00;;;12.48;;
21274;SDS011;36472;52.170;20.884;2022-08-19T00:52:27;15.15;;;13.55;;
21274;SDS011;36472;52.170;20.884;2022-08-19T00:55:01;15.35;;;13.13;;
21274;SDS011;36472;52.170;20.884;2022-08-19T00:57:36;16.60;;;13.43;;
21274;SDS011;36472;52.170;20.884;2022-08-19T01:00:12;15.15;;;13.60;;
21274;SDS011;36472;52.170;20.884;2022-08-19T01:02:46;16.80;;;13.40;;
21274;SDS011;36472;52.170;20.884;2022-08-19T01:05:16;15.45;;;13.55;;
21274;SDS011;36472;52.170;20.884;2022-08-19T01:07:50;15.52;;;12.77;;
21274;SDS011;36472;52.170;20.884;2022-08-19T01:10:21;14.40;;;12.90;;
21274;SDS011;36472;52.170;20.884;2022-08-19T01:13:00;12.15;;;11.00;;
21274;SDS011;36472;52.170;20.884;2022-08-19T01:15:31;13.48;;;12.10;;
21274;SDS011;36472;52.170;20.884;2022-08-19T01:18:12;14.40;;;12.90;;
21274;SDS011;36472;52.170;20.884;2022-08-19T01:20:44;14.05;;;12.57;;
21274;SDS011;36472;52.170;20.884;2022-08-19T01:23:15;13.50;;;12.10;;
21274;SDS011;36472;52.170;20.884;2022-08-19T01:25:45;13.98;;;12.48;;
21274;SDS011;36472;52.170;20.884;2022-08-19T01:28:20;16.00;;;13.07;;
21274;SDS011;36472;52.170;20.884;2022-08-19T01:31:04;14.90;;;13.05;;
21274;SDS011;36472;52.170;20.884;2022-08-19T01:33:34;14.98;;;11.98;;
21274;SDS011;36472;52.170;20.884;2022-08-19T01:36:03;16.25;;;13.60;;
21274;SDS011;36472;52.170;20.884;2022-08-19T01:38:38;16.90;;;13.75;;
21274;SDS011;36472;52.170;20.884;2022-08-19T01:41:10;15.82;;;14.05;;
21274;SDS011;36472;52.170;20.884;2022-08-19T01:43:40;14.73;;;13.23;;
21274;SDS011;36472;52.170;20.884;2022-08-19T01:46:28;15.60;;;13.27;;
21274;SDS011;36472;52.170;20.884;2022-08-19T01:48:58;18.35;;;13.38;;
21274;SDS011;36472;52.170;20.884;2022-08-19T01:51:27;16.20;;;13.00;;
21274;SDS011;36472;52.170;20.884;2022-08-19T01:54:07;17.45;;;12.85;;
21274;SDS011;36472;52.170;20.884;2022-08-19T01:56:36;16.13;;;13.18;;
21274;SDS011;36472;52.170;20.884;2022-08-19T01:59:06;18.95;;;12.77;;
21274;SDS011;36472;52.170;20.884;2022-08-19T02:01:42;14.38;;;12.18;;
21274;SDS011;36472;52.170;20.884;2022-08-19T02:04:11;13.43;;;12.10;;
21274;SDS011;36472;52.170;20.884;2022-08-19T02:06:41;17.40;;;13.10;;
21274;SDS011;36472;52.170;20.884;2022-08-19T02:09:11;15.55;;;12.90;;
21274;SDS011;36472;52.170;20.884;2022-08-19T02:11:40;15.32;;;12.43;;
21274;SDS011;36472;52.170;20.884;2022-08-19T02:14:10;13.73;;;12.32;;
21274;SDS011;36472;52.170;20.884;2022-08-19T02:16:38;13.63;;;12.05;;
21274;SDS011;36472;52.170;20.884;2022-08-19T02:19:07;13.48;;;12.13;;
21274;SDS011;36472;52.170;20.884;2022-08-19T02:21:37;13.23;;;11.75;;
21274;SDS011;36472;52.170;20.884;2022-08-19T02:24:06;16.42;;;12.38;;
21274;SDS011;36472;52.170;20.884;2022-08-19T02:26:36;13.82;;;12.27;;
21274;SDS011;36472;52.170;20.884;2022-08-19T02:29:07;15.98;;;12.15;;
21274;SDS011;36472;52.170;20.884;2022-08-19T02:31:36;14.55;;;12.35;;
21274;SDS011;36472;52.170;20.884;2022-08-19T02:34:04;12.55;;;11.15;;
21274;SDS011;36472;52.170;20.884;2022-08-19T02:36:33;13.30;;;12.00;;
21274;SDS011;36472;52.170;20.884;2022-08-19T02:39:08;13.07;;;11.70;;
21274;SDS011;36472;52.170;20.884;2022-08-19T02:41:37;14.73;;;11.68;;
21274;SDS011;36472;52.170;20.884;2022-08-19T02:44:06;13.45;;;11.85;;
21274;SDS011;36472;52.170;20.884;2022-08-19T02:46:55;13.35;;;11.25;;
21274;SDS011;36472;52.170;20.884;2022-08-19T02:49:24;15.13;;;12.60;;
21274;SDS011;36472;52.170;20.884;2022-08-19T02:51:52;17.40;;;13.45;;
21274;SDS011;36472;52.170;20.884;2022-08-19T02:54:21;14.60;;;12.90;;
21274;SDS011;36472;52.170;20.884;2022-08-19T02:56:51;15.15;;;12.70;;
21274;SDS011;36472;52.170;20.884;2022-08-19T02:59:20;15.25;;;13.05;;
21274;SDS011;36472;52.170;20.884;2022-08-19T03:01:49;16.40;;;12.93;;
21274;SDS011;36472;52.170;20.884;2022-08-19T03:04:18;15.07;;;12.93;;
21274;SDS011;36472;52.170;20.884;2022-08-19T03:06:48;14.73;;;13.18;;
21274;SDS011;36472;52.170;20.884;2022-08-19T03:09:17;14.98;;;13.27;;
21274;SDS011;36472;52.170;20.884;2022-08-19T03:11:48;17.58;;;13.35;;
21274;SDS011;36472;52.170;20.884;2022-08-19T03:14:20;15.45;;;13.00;;
21274;SDS011;36472;52.170;20.884;2022-08-19T03:16:50;14.95;;;13.32;;
21274;SDS011;36472;52.170;20.884;2022-08-19T03:19:20;15.35;;;13.77;;
21274;SDS011;36472;52.170;20.884;2022-08-19T03:21:49;15.35;;;13.23;;
21274;SDS011;36472;52.170;20.884;2022-08-19T03:24:20;14.70;;;13.02;;
21274;SDS011;36472;52.170;20.884;2022-08-19T03:26:49;18.55;;;14.48;;
21274;SDS011;36472;52.170;20.884;2022-08-19T03:29:25;15.52;;;13.73;;
21274;SDS011;36472;52.170;20.884;2022-08-19T03:31:58;20.52;;;13.90;;
21274;SDS011;36472;52.170;20.884;2022-08-19T03:34:31;16.08;;;14.20;;
21274;SDS011;36472;52.170;20.884;2022-08-19T03:37:03;17.42;;;13.95;;
21274;SDS011;36472;52.170;20.884;2022-08-19T03:39:35;15.70;;;13.02;;
21274;SDS011;36472;52.170;20.884;2022-08-19T03:42:06;15.02;;;13.40;;
21274;SDS011;36472;52.170;20.884;2022-08-19T03:44:56;17.45;;;13.68;;
21274;SDS011;36472;52.170;20.884;2022-08-19T03:47:25;15.75;;;13.55;;
21274;SDS011;36472;52.170;20.884;2022-08-19T03:49:54;15.65;;;14.05;;
21274;SDS011;36472;52.170;20.884;2022-08-19T03:52:22;15.55;;;12.98;;
21274;SDS011;36472;52.170;20.884;2022-08-19T03:54:51;14.55;;;13.15;;
21274;SDS011;36472;52.170;20.884;2022-08-19T03:57:20;15.25;;;13.45;;
21274;SDS011;36472;52.170;20.884;2022-08-19T03:59:59;17.23;;;13.00;;
21274;SDS011;36472;52.170;20.884;2022-08-19T04:02:38;16.95;;;13.73;;
21274;SDS011;36472;52.170;20.884;2022-08-19T04:05:24;17.85;;;13.95;;
21274;SDS011;36472;52.170;20.884;2022-08-19T04:07:55;17.20;;;13.85;;
21274;SDS011;36472;52.170;20.884;2022-08-19T04:10:25;17.00;;;13.43;;
21274;SDS011;36472;52.170;20.884;2022-08-19T04:12:55;14.20;;;12.80;;
21274;SDS011;36472;52.170;20.884;2022-08-19T04:15:24;14.80;;;12.98;;
21274;SDS011;36472;52.170;20.884;2022-08-19T04:17:55;16.27;;;13.50;;
21274;SDS011;36472;52.170;20.884;2022-08-19T04:20:24;16.50;;;13.63;;
21274;SDS011;36472;52.170;20.884;2022-08-19T04:22:52;15.07;;;13.48;;
21274;SDS011;36472;52.170;20.884;2022-08-19T04:25:21;18.00;;;14.52;;
21274;SDS011;36472;52.170;20.884;2022-08-19T04:27:50;15.88;;;13.48;;
21274;SDS011;36472;52.170;20.884;2022-08-19T04:30:19;16.05;;;14.20;;
21274;SDS011;36472;52.170;20.884;2022-08-19T04:32:50;17.35;;;14.27;;
21274;SDS011;36472;52.170;20.884;2022-08-19T04:35:19;15.98;;;14.02;;
21274;SDS011;36472;52.170;20.884;2022-08-19T04:37:50;16.15;;;14.43;;
21274;SDS011;36472;52.170;20.884;2022-08-19T04:40:19;17.35;;;14.52;;
21274;SDS011;36472;52.170;20.884;2022-08-19T04:43:08;17.52;;;14.13;;
21274;SDS011;36472;52.170;20.884;2022-08-19T04:45:42;16.50;;;14.73;;
21274;SDS011;36472;52.170;20.884;2022-08-19T04:48:13;16.20;;;14.45;;
21274;SDS011;36472;52.170;20.884;2022-08-19T04:50:53;16.77;;;14.57;;
21274;SDS011;36472;52.170;20.884;2022-08-19T04:53:25;20.17;;;14.77;;
21274;SDS011;36472;52.170;20.884;2022-08-19T04:56:05;16.88;;;15.07;;
21274;SDS011;36472;52.170;20.884;2022-08-19T04:58:40;18.52;;;15.48;;
21274;SDS011;36472;52.170;20.884;2022-08-19T05:01:12;16.48;;;14.80;;
21274;SDS011;36472;52.170;20.884;2022-08-19T05:03:43;20.45;;;14.23;;
21274;SDS011;36472;52.170;20.884;2022-08-19T05:06:13;16.95;;;15.23;;
21274;SDS011;36472;52.170;20.884;2022-08-19T05:08:44;19.13;;;14.57;;
21274;SDS011;36472;52.170;20.884;2022-08-19T05:11:16;18.08;;;14.70;;
21274;SDS011;36472;52.170;20.884;2022-08-19T05:13:52;18.98;;;14.82;;
21274;SDS011;36472;52.170;20.884;2022-08-19T05:16:21;19.30;;;14.52;;
21274;SDS011;36472;52.170;20.884;2022-08-19T05:18:54;21.63;;;15.75;;
21274;SDS011;36472;52.170;20.884;2022-08-19T05:21:42;20.27;;;14.45;;
21274;SDS011;36472;52.170;20.884;2022-08-19T05:24:29;16.10;;;13.95;;
21274;SDS011;36472;52.170;20.884;2022-08-19T05:27:00;22.00;;;15.05;;
21274;SDS011;36472;52.170;20.884;2022-08-19T05:29:32;17.38;;;13.95;;
21274;SDS011;36472;52.170;20.884;2022-08-19T05:32:02;18.05;;;16.15;;
21274;SDS011;36472;52.170;20.884;2022-08-19T05:34:37;21.80;;;15.75;;
21274;SDS011;36472;52.170;20.884;2022-08-19T05:37:06;16.60;;;14.85;;
21274;SDS011;36472;52.170;20.884;2022-08-19T05:39:36;20.45;;;15.80;;
21274;SDS011;36472;52.170;20.884;2022-08-19T05:42:08;16.95;;;14.45;;
21274;SDS011;36472;52.170;20.884;2022-08-19T05:44:39;18.65;;;14.93;;
21274;SDS011;36472;52.170;20.884;2022-08-19T05:47:11;17.30;;;14.95;;
21274;SDS011;36472;52.170;20.884;2022-08-19T05:49:43;15.52;;;13.90;;
21274;SDS011;36472;52.170;20.884;2022-08-19T05:52:12;15.98;;;14.13;;
21274;SDS011;36472;52.170;20.884;2022-08-19T05:54:45;16.15;;;13.68;;
21274;SDS011;36472;52.170;20.884;2022-08-19T05:57:17;16.60;;;13.85;;
21274;SDS011;36472;52.170;20.884;2022-08-19T05:59:47;16.83;;;13.80;;
21274;SDS011;36472;52.170;20.884;2022-08-19T06:02:18;14.82;;;13.27;;
21274;SDS011;36472;52.170;20.884;2022-08-19T06:04:48;15.02;;;13.50;;
21274;SDS011;36472;52.170;20.884;2022-08-19T06:07:17;16.00;;;13.18;;
21274;SDS011;36472;52.170;20.884;2022-08-19T06:09:46;16.70;;;13.95;;
21274;SDS011;36472;52.170;20.884;2022-08-19T06:12:27;19.90;;;14.05;;
21274;SDS011;36472;52.170;20.884;2022-08-19T06:15:00;20.00;;;13.18;;
21274;SDS011;36472;52.170;20.884;2022-08-19T06:17:31;17.42;;;13.10;;
21274;SDS011;36472;52.170;20.884;2022-08-19T06:20:03;17.67;;;13.43;;
21274;SDS011;36472;52.170;20.884;2022-08-19T06:22:36;15.10;;;12.68;;
21274;SDS011;36472;52.170;20.884;2022-08-19T06:25:06;15.50;;;12.95;;
21274;SDS011;36472;52.170;20.884;2022-08-19T06:27:37;14.05;;;12.65;;
21274;SDS011;36472;52.170;20.884;2022-08-19T06:30:26;14.07;;;12.60;;
21274;SDS011;36472;52.170;20.884;2022-08-19T06:32:55;14.35;;;12.13;;
21274;SDS011;36472;52.170;20.884;2022-08-19T06:35:25;15.80;;;12.88;;
21274;SDS011;36472;52.170;20.884;2022-08-19T06:37:56;15.63;;;12.18;;
21274;SDS011;36472;52.170;20.884;2022-08-19T06:40:25;13.88;;;12.23;;
21274;SDS011;36472;52.170;20.884;2022-08-19T06:42:54;16.25;;;12.00;;
21274;SDS011;36472;52.170;20.884;2022-08-19T06:45:23;16.83;;;12.30;;
21274;SDS011;36472;52.170;20.884;2022-08-19T06:48:01;15.93;;;12.25;;
21274;SDS011;36472;52.170;20.884;2022-08-19T06:50:32;13.60;;;12.25;;
21274;SDS011;36472;52.170;20.884;2022-08-19T06:53:05;12.60;;;11.32;;
21274;SDS011;36472;52.170;20.884;2022-08-19T06:55:33;13.48;;;12.00;;
21274;SDS011;36472;52.170;20.884;2022-08-19T06:58:02;13.13;;;11.60;;
21274;SDS011;36472;52.170;20.884;2022-08-19T07:00:32;13.13;;;11.32;;
21274;SDS011;36472;52.170;20.884;2022-08-19T07:03:01;12.00;;;10.75;;
21274;SDS011;36472;52.170;20.884;2022-08-19T07:05:39;13.70;;;10.70;;
21274;SDS011;36472;52.170;20.884;2022-08-19T07:08:11;12.05;;;10.88;;
21274;SDS011;36472;52.170;20.884;2022-08-19T07:10:45;11.82;;;10.35;;
21274;SDS011;36472;52.170;20.884;2022-08-19T07:13:14;13.77;;;11.32;;
21274;SDS011;36472;52.170;20.884;2022-08-19T07:15:43;12.60;;;10.60;;
21274;SDS011;36472;52.170;20.884;2022-08-19T07:18:13;14.38;;;10.38;;
21274;SDS011;36472;52.170;20.884;2022-08-19T07:20:44;15.07;;;10.80;;
21274;SDS011;36472;52.170;20.884;2022-08-19T07:23:12;14.38;;;10.65;;
21274;SDS011;36472;52.170;20.884;2022-08-19T07:25:42;13.95;;;9.77;;
21274;SDS011;36472;52.170;20.884;2022-08-19T07:28:19;13.05;;;10.80;;
21274;SDS011;36472;52.170;20.884;2022-08-19T07:30:50;15.48;;;10.13;;
21274;SDS011;36472;52.170;20.884;2022-08-19T07:33:21;12.10;;;10.32;;
21274;SDS011;36472;52.170;20.884;2022-08-19T07:35:54;13.07;;;10.18;;
21274;SDS011;36472;52.170;20.884;2022-08-19T07:38:23;11.65;;;9.50;;
21274;SDS011;36472;52.170;20.884;2022-08-19T07:40:52;14.05;;;9.18;;
21274;SDS011;36472;52.170;20.884;2022-08-19T07:43:21;15.75;;;10.15;;
21274;SDS011;36472;52.170;20.884;2022-08-19T07:46:01;11.15;;;9.95;;
21274;SDS011;36472;52.170;20.884;2022-08-19T07:48:30;12.30;;;9.60;;
21274;SDS011;36472;52.170;20.884;2022-08-19T07:51:02;10.13;;;9.18;;
21274;SDS011;36472;52.170;20.884;2022-08-19T07:53:34;12.45;;;9.73;;
21274;SDS011;36472;52.170;20.884;2022-08-19T07:56:05;10.98;;;9.80;;
21274;SDS011;36472;52.170;20.884;2022-08-19T07:58:36;10.50;;;9.48;;
21274;SDS011;36472;52.170;20.884;2022-08-19T08:01:09;10.07;;;9.02;;
21274;SDS011;36472;52.170;20.884;2022-08-19T08:03:41;11.15;;;9.52;;
21274;SDS011;36472;52.170;20.884;2022-08-19T08:06:29;10.25;;;9.25;;
21274;SDS011;36472;52.170;20.884;2022-08-19T08:09:16;10.77;;;9.68;;
21274;SDS011;36472;52.170;20.884;2022-08-19T08:11:52;12.00;;;9.85;;
21274;SDS011;36472;52.170;20.884;2022-08-19T08:14:31;11.07;;;10.00;;
21274;SDS011;36472;52.170;20.884;2022-08-19T08:17:09;10.70;;;9.60;;
21274;SDS011;36472;52.170;20.884;2022-08-19T08:19:39;12.68;;;9.77;;
21274;SDS011;36472;52.170;20.884;2022-08-19T08:22:11;11.95;;;9.52;;
21274;SDS011;36472;52.170;20.884;2022-08-19T08:25:00;11.20;;;9.93;;
21274;SDS011;36472;52.170;20.884;2022-08-19T08:27:34;11.95;;;10.50;;
21274;SDS011;36472;52.170;20.884;2022-08-19T08:30:06;14.68;;;9.60;;
21274;SDS011;36472;52.170;20.884;2022-08-19T08:32:37;10.30;;;9.25;;
21274;SDS011;36472;52.170;20.884;2022-08-19T08:35:09;12.02;;;9.52;;
21274;SDS011;36472;52.170;20.884;2022-08-19T08:37:44;11.05;;;9.98;;
21274;SDS011;36472;52.170;20.884;2022-08-19T08:40:18;11.77;;;9.65;;
21274;SDS011;36472;52.170;20.884;2022-08-19T08:43:00;10.38;;;9.07;;
21274;SDS011;36472;52.170;20.884;2022-08-19T08:45:38;12.93;;;9.57;;
21274;SDS011;36472;52.170;20.884;2022-08-19T08:48:20;10.85;;;9.43;;
21274;SDS011;36472;52.170;20.884;2022-08-19T08:51:00;12.48;;;9.50;;
21274;SDS011;36472;52.170;20.884;2022-08-19T08:53:36;13.68;;;10.32;;
21274;SDS011;36472;52.170;20.884;2022-08-19T08:56:08;11.55;;;10.25;;
21274;SDS011;36472;52.170;20.884;2022-08-19T08:58:46;10.07;;;9.10;;
21274;SDS011;36472;52.170;20.884;2022-08-19T09:01:26;10.15;;;9.13;;
21274;SDS011;36472;52.170;20.884;2022-08-19T09:03:56;11.35;;;9.32;;
21274;SDS011;36472;52.170;20.884;2022-08-19T09:06:29;11.02;;;9.23;;
21274;SDS011;36472;52.170;20.884;2022-08-19T09:09:12;10.40;;;8.48;;
21274;SDS011;36472;52.170;20.884;2022-08-19T09:11:50;14.77;;;8.00;;
21274;SDS011;36472;52.170;20.884;2022-08-19T09:14:34;8.82;;;7.97;;
21274;SDS011;36472;52.170;20.884;2022-08-19T09:17:17;8.70;;;7.80;;
21274;SDS011;36472;52.170;20.884;2022-08-19T09:19:55;11.45;;;8.57;;
21274;SDS011;36472;52.170;20.884;2022-08-19T09:22:29;10.68;;;8.20;;
21274;SDS011;36472;52.170;20.884;2022-08-19T09:24:59;9.05;;;8.13;;
21274;SDS011;36472;52.170;20.884;2022-08-19T09:27:30;12.25;;;8.43;;
21274;SDS011;36472;52.170;20.884;2022-08-19T09:30:20;10.45;;;8.32;;
21274;SDS011;36472;52.170;20.884;2022-08-19T09:32:53;10.18;;;8.05;;
21274;SDS011;36472;52.170;20.884;2022-08-19T09:35:24;9.30;;;7.90;;
21274;SDS011;36472;52.170;20.884;2022-08-19T09:37:57;11.25;;;8.25;;
21274;SDS011;36472;52.170;20.884;2022-08-19T09:40:30;12.88;;;8.15;;
21274;SDS011;36472;52.170;20.884;2022-08-19T09:43:04;12.85;;;7.93;;
21274;SDS011;36472;52.170;20.884;2022-08-19T09:45:37;10.35;;;7.97;;
21274;SDS011;36472;52.170;20.884;2022-08-19T09:48:05;9.32;;;8.35;;
21274;SDS011;36472;52.170;20.884;2022-08-19T09:50:37;9.65;;;8.25;;
21274;SDS011;36472;52.170;20.884;2022-08-19T09:53:18;13.35;;;8.20;;
21274;SDS011;36472;52.170;20.884;2022-08-19T09:55:52;9.98;;;7.85;;
21274;SDS011;36472;52.170;20.884;2022-08-19T09:58:23;11.95;;;8.40;;
21274;SDS011;36472;52.170;20.884;2022-08-19T10:00:54;9.80;;;8.55;;
21274;SDS011;36472;52.170;20.884;2022-08-19T10:03:24;9.82;;;8.05;;
21274;SDS011;36472;52.170;20.884;2022-08-19T10:05:56;8.60;;;7.70;;
21274;SDS011;36472;52.170;20.884;2022-08-19T10:08:28;10.65;;;7.78;;
21274;SDS011;36472;52.170;20.884;2022-08-19T10:11:01;11.63;;;8.65;;
21274;SDS011;36472;52.170;20.884;2022-08-19T10:13:52;10.38;;;8.65;;
21274;SDS011;36472;52.170;20.884;2022-08-19T10:16:22;10.52;;;7.47;;
21274;SDS011;36472;52.170;20.884;2022-08-19T10:18:56;9.88;;;8.35;;
21274;SDS011;36472;52.170;20.884;2022-08-19T10:21:30;13.48;;;8.23;;
21274;SDS011;36472;52.170;20.884;2022-08-19T10:24:03;10.80;;;8.02;;
21274;SDS011;36472;52.170;20.884;2022-08-19T10:26:37;9.50;;;8.15;;
21274;SDS011;36472;52.170;20.884;2022-08-19T10:29:12;9.27;;;7.55;;
21274;SDS011;36472;52.170;20.884;2022-08-19T10:31:59;9.48;;;8.02;;
21274;SDS011;36472;52.170;20.884;2022-08-19T10:34:29;9.10;;;7.65;;
21274;SDS011;36472;52.170;20.884;2022-08-19T10:37:00;9.40;;;8.40;;
21274;SDS011;36472;52.170;20.884;2022-08-19T10:39:29;13.27;;;7.80;;
21274;SDS011;36472;52.170;20.884;2022-08-19T10:42:10;9.48;;;7.78;;
21274;SDS011;36472;52.170;20.884;2022-08-19T10:44:40;10.20;;;8.23;;
21274;SDS011;36472;52.170;20.884;2022-08-19T10:47:09;10.15;;;8.32;;
21274;SDS011;36472;52.170;20.884;2022-08-19T10:49:51;13.48;;;8.15;;
21274;SDS011;36472;52.170;20.884;2022-08-19T10:52:39;10.65;;;8.75;;
21274;SDS011;36472;52.170;20.884;2022-08-19T10:55:17;10.27;;;8.20;;
21274;SDS011;36472;52.170;20.884;2022-08-19T10:58:11;13.38;;;9.02;;
21274;SDS011;36472;52.170;20.884;2022-08-19T11:00:42;10.35;;;8.50;;
21274;SDS011;36472;52.170;20.884;2022-08-19T11:03:18;9.80;;;8.70;;
21274;SDS011;36472;52.170;20.884;2022-08-19T11:05:56;9.05;;;8.02;;
21274;SDS011;36472;52.170;20.884;2022-08-19T11:08:26;9.50;;;8.05;;
21274;SDS011;36472;52.170;20.884;2022-08-19T11:10:55;12.20;;;8.10;;
21274;SDS011;36472;52.170;20.884;2022-08-19T11:13:32;11.45;;;8.45;;
21274;SDS011;36472;52.170;20.884;2022-08-19T11:16:05;11.90;;;8.10;;
21274;SDS011;36472;52.170;20.884;2022-08-19T11:18:38;10.68;;;9.00;;
21274;SDS011;36472;52.170;20.884;2022-08-19T11:21:12;10.95;;;8.57;;
21274;SDS011;36472;52.170;20.884;2022-08-19T11:23:46;12.93;;;8.00;;
21274;SDS011;36472;52.170;20.884;2022-08-19T11:26:18;11.45;;;8.23;;
21274;SDS011;36472;52.170;20.884;2022-08-19T11:28:50;11.88;;;8.35;;
21274;SDS011;36472;52.170;20.884;2022-08-19T11:31:23;11.75;;;8.50;;
21274;SDS011;36472;52.170;20.884;2022-08-19T11:33:55;11.73;;;8.73;;
21274;SDS011;36472;52.170;20.884;2022-08-19T11:36:26;12.93;;;8.38;;
21274;SDS011;36472;52.170;20.884;2022-08-19T11:38:56;11.88;;;8.73;;
21274;SDS011;36472;52.170;20.884;2022-08-19T11:41:25;14.45;;;9.55;;
21274;SDS011;36472;52.170;20.884;2022-08-19T11:43:55;10.90;;;8.43;;
21274;SDS011;36472;52.170;20.884;2022-08-19T11:46:25;11.82;;;8.80;;
21274;SDS011;36472;52.170;20.884;2022-08-19T11:48:56;12.02;;;8.65;;
21274;SDS011;36472;52.170;20.884;2022-08-19T11:51:26;11.40;;;8.35;;
21274;SDS011;36472;52.170;20.884;2022-08-19T11:53:56;12.77;;;8.65;;
21274;SDS011;36472;52.170;20.884;2022-08-19T11:56:27;11.43;;;8.73;;
21274;SDS011;36472;52.170;20.884;2022-08-19T11:58:57;11.30;;;8.57;;
21274;SDS011;36472;52.170;20.884;2022-08-19T12:01:30;10.48;;;8.32;;
21274;SDS011;36472;52.170;20.884;2022-08-19T12:03:59;11.93;;;9.32;;
21274;SDS011;36472;52.170;20.884;2022-08-19T12:06:29;11.90;;;8.95;;
21274;SDS011;36472;52.170;20.884;2022-08-19T12:09:02;12.20;;;9.23;;
21274;SDS011;36472;52.170;20.884;2022-08-19T12:11:35;12.95;;;9.60;;
21274;SDS011;36472;52.170;20.884;2022-08-19T12:14:06;11.20;;;8.75;;
21274;SDS011;36472;52.170;20.884;2022-08-19T12:16:43;13.20;;;8.80;;
21274;SDS011;36472;52.170;20.884;2022-08-19T12:19:18;10.07;;;9.18;;
21274;SDS011;36472;52.170;20.884;2022-08-19T12:21:48;13.52;;;9.15;;
21274;SDS011;36472;52.170;20.884;2022-08-19T12:24:19;15.02;;;8.90;;
21274;SDS011;36472;52.170;20.884;2022-08-19T12:26:50;9.88;;;8.40;;
21274;SDS011;36472;52.170;20.884;2022-08-19T12:29:22;9.65;;;8.35;;
21274;SDS011;36472;52.170;20.884;2022-08-19T12:31:55;11.68;;;9.40;;
21274;SDS011;36472;52.170;20.884;2022-08-19T12:34:30;10.80;;;8.20;;
21274;SDS011;36472;52.170;20.884;2022-08-19T12:37:01;12.35;;;8.52;;
21274;SDS011;36472;52.170;20.884;2022-08-19T12:39:37;12.32;;;8.63;;
21274;SDS011;36472;52.170;20.884;2022-08-19T12:42:09;13.32;;;8.70;;
21274;SDS011;36472;52.170;20.884;2022-08-19T12:44:41;12.75;;;8.70;;
21274;SDS011;36472;52.170;20.884;2022-08-19T12:47:12;11.60;;;8.23;;
21274;SDS011;36472;52.170;20.884;2022-08-19T12:49:41;10.90;;;8.05;;
21274;SDS011;36472;52.170;20.884;2022-08-19T12:52:21;11.15;;;8.57;;
21274;SDS011;36472;52.170;20.884;2022-08-19T12:54:53;9.32;;;8.32;;
21274;SDS011;36472;52.170;20.884;2022-08-19T12:57:26;10.73;;;8.85;;
21274;SDS011;36472;52.170;20.884;2022-08-19T13:00:03;11.20;;;9.18;;
21274;SDS011;36472;52.170;20.884;2022-08-19T13:02:37;10.77;;;8.70;;
21274;SDS011;36472;52.170;20.884;2022-08-19T13:05:08;9.30;;;8.38;;
21274;SDS011;36472;52.170;20.884;2022-08-19T13:07:42;12.48;;;8.73;;
21274;SDS011;36472;52.170;20.884;2022-08-19T13:10:12;9.30;;;8.00;;
21274;SDS011;36472;52.170;20.884;2022-08-19T13:12:44;10.60;;;8.45;;
21274;SDS011;36472;52.170;20.884;2022-08-19T13:15:17;12.68;;;8.15;;
21274;SDS011;36472;52.170;20.884;2022-08-19T13:17:50;14.13;;;9.00;;
21274;SDS011;36472;52.170;20.884;2022-08-19T13:20:23;9.43;;;8.23;;
21274;SDS011;36472;52.170;20.884;2022-08-19T13:22:53;9.52;;;7.90;;
21274;SDS011;36472;52.170;20.884;2022-08-19T13:25:24;8.40;;;7.45;;
21274;SDS011;36472;52.170;20.884;2022-08-19T13:27:53;12.30;;;8.57;;
21274;SDS011;36472;52.170;20.884;2022-08-19T13:30:24;9.70;;;8.45;;
21274;SDS011;36472;52.170;20.884;2022-08-19T13:33:10;11.35;;;8.07;;
21274;SDS011;36472;52.170;20.884;2022-08-19T13:35:43;10.13;;;8.30;;
21274;SDS011;36472;52.170;20.884;2022-08-19T13:38:16;12.43;;;8.60;;
21274;SDS011;36472;52.170;20.884;2022-08-19T13:40:48;15.00;;;8.32;;
21274;SDS011;36472;52.170;20.884;2022-08-19T13:43:20;9.82;;;8.48;;
21274;SDS011;36472;52.170;20.884;2022-08-19T13:45:54;13.48;;;7.55;;
21274;SDS011;36472;52.170;20.884;2022-08-19T13:48:24;14.10;;;8.55;;
21274;SDS011;36472;52.170;20.884;2022-08-19T13:50:54;11.68;;;7.90;;
21274;SDS011;36472;52.170;20.884;2022-08-19T13:53:22;10.20;;;7.85;;
21274;SDS011;36472;52.170;20.884;2022-08-19T13:55:51;9.90;;;8.02;;
21274;SDS011;36472;52.170;20.884;2022-08-19T13:58:20;10.57;;;7.38;;
21274;SDS011;36472;52.170;20.884;2022-08-19T14:00:50;12.02;;;7.20;;
21274;SDS011;36472;52.170;20.884;2022-08-19T14:03:20;10.85;;;7.65;;
21274;SDS011;36472;52.170;20.884;2022-08-19T14:05:50;9.52;;;6.97;;
21274;SDS011;36472;52.170;20.884;2022-08-19T14:08:19;10.52;;;7.80;;
21274;SDS011;36472;52.170;20.884;2022-08-19T14:10:48;10.75;;;6.88;;
21274;SDS011;36472;52.170;20.884;2022-08-19T14:13:18;8.30;;;7.40;;
21274;SDS011;36472;52.170;20.884;2022-08-19T14:15:49;13.85;;;7.25;;
21274;SDS011;36472;52.170;20.884;2022-08-19T14:18:21;11.93;;;8.13;;
21274;SDS011;36472;52.170;20.884;2022-08-19T14:20:54;10.20;;;7.70;;
21274;SDS011;36472;52.170;20.884;2022-08-19T14:23:24;9.38;;;6.82;;
21274;SDS011;36472;52.170;20.884;2022-08-19T14:25:53;10.68;;;6.93;;
21274;SDS011;36472;52.170;20.884;2022-08-19T14:28:31;9.80;;;7.18;;
21274;SDS011;36472;52.170;20.884;2022-08-19T14:30:59;10.98;;;7.10;;
21274;SDS011;36472;52.170;20.884;2022-08-19T14:33:29;8.23;;;7.15;;
21274;SDS011;36472;52.170;20.884;2022-08-19T14:35:58;9.80;;;7.65;;
21274;SDS011;36472;52.170;20.884;2022-08-19T14:38:28;12.23;;;7.63;;
21274;SDS011;36472;52.170;20.884;2022-08-19T14:41:08;8.20;;;7.22;;
21274;SDS011;36472;52.170;20.884;2022-08-19T14:43:40;10.70;;;7.75;;
21274;SDS011;36472;52.170;20.884;2022-08-19T14:46:09;9.45;;;7.85;;
21274;SDS011;36472;52.170;20.884;2022-08-19T14:48:44;8.05;;;7.07;;